Airfield :
LOGIN :

Register | Disclaimer

   EN    FR    IT 

 










Legend :    VFR   Marginal VFR   IFR   Intensive IFR   Very Intensive IFR
Visi :
Ceiling :
>= 8 km
>= 3000ft
5 to 8 km
1000 to 3000 ft
1500m to 5 km
500 to 1000 ft
800 to 1500m
200 to 500 ft
< 800m
< 200 ft
Symbols :   Thunderstorms  Fog  Heavy snow  Heavy precipitations  Wind > 20 kt
SIGMETs :     Misc.  Thunderstorms  Icing  Turbulence  Mountain Waves  Volcanic Ashes






- Airport Elevation : 489 ft
- IATA code : GDN


EPGD - Gdansk

CURRENT METAR :
  • 290830Z 10012KT 9999 OVC008 M00/M01 Q1024

EXPIRED METARs :
  • 290800Z 11012KT 9999 OVC008 M00/M01 Q1024
  • 290730Z 11014KT 9999 OVC008 M00/M01 Q1024
  • 290700Z 11014KT 9999 OVC009 M00/M01 Q1024
  • 290630Z 11013KT 9999 OVC009 00/M01 Q1024
  • 290600Z 12016KT 9999 OVC009 00/M01 Q1024

TAF AMD TAF EPGD
Valid from the 29 at 07:00 until the 30 at 06:00 UTC


290741Z 2907/3006 13012KT 9999 BKN012
TEMPO 2907/2911 OVC008
PROB40
TEMPO 2915/2924 3000 BR BKN003



MET'MAP, your aeronautical weather chart ! - Copyright ORBIFLY December 2007 - Disclaimer

ORBIFLY MET'MAP TEAM :

Programming & Development : Alexandra Zaïnal
Original concept : Baudouin d'Aumeries
Technical & hardware support : Manuel Goepfert
Assistance : Marc-Olivier Méhu




SOURCES & CREDITS :

   NOAA